createdAt,value
2019-03-20T00:01:08.710Z,98610.00
2019-03-20T00:03:40.058Z,98608.00
2019-03-20T00:06:11.493Z,98614.00
2019-03-20T00:08:42.670Z,98600.00
2019-03-20T00:11:15.023Z,98605.00
2019-03-20T00:13:46.182Z,98599.00
2019-03-20T00:16:17.929Z,98608.00
2019-03-20T00:18:49.044Z,98605.00
2019-03-20T00:21:20.298Z,98608.00
2019-03-20T00:23:51.804Z,98616.00
2019-03-20T00:26:23.003Z,98606.00
2019-03-20T00:28:54.201Z,98610.00
2019-03-20T00:31:25.361Z,98606.00
2019-03-20T00:33:56.758Z,98606.00
2019-03-20T00:36:27.935Z,98605.00
2019-03-20T00:38:59.495Z,98610.00
2019-03-20T00:41:30.643Z,98611.00
2019-03-20T00:44:02.061Z,98608.00
2019-03-20T00:46:33.194Z,98602.00
2019-03-20T00:49:04.402Z,98612.00
2019-03-20T00:51:35.862Z,98607.00
2019-03-20T00:54:07.132Z,98597.00
2019-03-20T00:56:38.252Z,98592.00
2019-03-20T00:59:09.438Z,98607.00
2019-03-20T01:01:41.711Z,98606.00
2019-03-20T01:04:13.098Z,98605.00
2019-03-20T01:06:44.347Z,98595.00
2019-03-20T01:09:15.937Z,98597.00
2019-03-20T01:11:47.059Z,98594.00
2019-03-20T01:14:18.703Z,98603.00
2019-03-20T01:16:50.421Z,98614.00
2019-03-20T01:19:22.052Z,98611.00
2019-03-20T01:21:53.317Z,98606.00
2019-03-20T01:24:25.184Z,98603.00
2019-03-20T01:26:56.348Z,98610.00
2019-03-20T01:29:27.778Z,98603.00
2019-03-20T01:31:58.787Z,98597.00
2019-03-20T01:34:30.076Z,98595.00
2019-03-20T01:37:01.557Z,98606.00
2019-03-20T01:39:32.678Z,98613.00
2019-03-20T01:42:03.938Z,98605.00
2019-03-20T01:44:35.057Z,98597.00
2019-03-20T01:47:06.941Z,98587.00
2019-03-20T01:49:38.224Z,98604.00
2019-03-20T01:52:09.727Z,98602.00
2019-03-20T01:54:40.933Z,98597.00
2019-03-20T01:57:12.505Z,98597.00
2019-03-20T01:59:43.625Z,98613.00
2019-03-20T02:02:14.984Z,98597.00
2019-03-20T02:04:46.855Z,98593.00
2019-03-20T02:07:18.034Z,98601.00
2019-03-20T02:09:49.277Z,98599.00
2019-03-20T02:12:20.750Z,98601.00
2019-03-20T02:14:51.940Z,98601.00
2019-03-20T02:17:23.276Z,98603.00
2019-03-20T02:19:54.472Z,98610.00
2019-03-20T02:22:25.977Z,98619.00
2019-03-20T02:24:57.089Z,98610.00
2019-03-20T02:27:28.785Z,98610.00
2019-03-20T02:30:00.550Z,98622.00
2019-03-20T02:32:31.852Z,98619.00
2019-03-20T02:35:03.130Z,98619.00
2019-03-20T02:37:34.442Z,98629.00
2019-03-20T02:40:06.576Z,98623.00
2019-03-20T02:42:38.053Z,98608.00
2019-03-20T02:45:12.476Z,98607.00
2019-03-20T02:47:44.073Z,98622.00
2019-03-20T02:50:16.750Z,98604.00
2019-03-20T02:52:47.802Z,98613.00
2019-03-20T02:55:19.059Z,98611.00
2019-03-20T02:57:50.076Z,98624.00
2019-03-20T03:00:21.739Z,98614.00
2019-03-20T03:02:52.962Z,98613.00
2019-03-20T03:05:24.311Z,98605.00
2019-03-20T03:07:55.499Z,98619.00
2019-03-20T03:10:27.101Z,98624.00
2019-03-20T03:12:58.264Z,98625.00
2019-03-20T03:15:29.535Z,98628.00
2019-03-20T03:18:00.627Z,98620.00
2019-03-20T03:20:32.125Z,98630.00
2019-03-20T03:23:03.270Z,98638.00
2019-03-20T03:25:34.581Z,98637.00
2019-03-20T03:28:05.819Z,98637.00
2019-03-20T03:30:37.010Z,98651.00
2019-03-20T03:33:08.458Z,98637.00
2019-03-20T03:35:39.717Z,98642.00
2019-03-20T03:38:10.933Z,98634.00
2019-03-20T03:40:43.408Z,98641.00
2019-03-20T03:43:14.557Z,98633.00
2019-03-20T03:45:45.804Z,98640.00
2019-03-20T03:48:16.954Z,98648.00
2019-03-20T03:50:48.635Z,98648.00
2019-03-20T03:53:19.827Z,98640.00
2019-03-20T03:55:51.066Z,98652.00
2019-03-20T03:58:22.335Z,98638.00
2019-03-20T04:00:53.844Z,98639.00
2019-03-20T04:03:25.222Z,98649.00
2019-03-20T04:05:56.728Z,98642.00
2019-03-20T04:08:27.867Z,98650.00
2019-03-20T04:10:59.034Z,98645.00
2019-03-20T04:13:30.390Z,98649.00
2019-03-20T04:16:01.737Z,98639.00
2019-03-20T04:18:33.192Z,98641.00
2019-03-20T04:21:04.754Z,98647.00
2019-03-20T04:23:35.805Z,98647.00
2019-03-20T04:26:07.071Z,98661.00
2019-03-20T04:28:38.457Z,98647.00
2019-03-20T04:31:09.760Z,98643.00
2019-03-20T04:33:41.038Z,98651.00
2019-03-20T04:36:12.217Z,98647.00
2019-03-20T04:38:43.647Z,98654.00
2019-03-20T04:41:15.204Z,98655.00
2019-03-20T04:43:46.498Z,98655.00
2019-03-20T04:46:17.691Z,98660.00
2019-03-20T04:48:49.158Z,98673.00
2019-03-20T04:51:20.305Z,98667.00
2019-03-20T04:53:51.754Z,98663.00
2019-03-20T04:56:22.943Z,98666.00
2019-03-20T04:58:54.137Z,98669.00
2019-03-20T05:01:25.732Z,98668.00
2019-03-20T05:03:56.889Z,98673.00
2019-03-20T05:06:28.466Z,98671.00
2019-03-20T05:08:59.784Z,98670.00
2019-03-20T05:11:31.322Z,98684.00
2019-03-20T05:14:02.557Z,98684.00
2019-03-20T05:16:33.766Z,98682.00
2019-03-20T05:19:04.971Z,98698.00
2019-03-20T05:21:36.121Z,98693.00
2019-03-20T05:24:07.391Z,98684.00
2019-03-20T05:26:38.601Z,98699.00
2019-03-20T05:29:09.853Z,98690.00
2019-03-20T05:31:40.968Z,98698.00
2019-03-20T05:34:12.519Z,98712.00
2019-03-20T05:36:44.729Z,98703.00
2019-03-20T05:39:16.027Z,98702.00
2019-03-20T05:41:48.733Z,98712.00
2019-03-20T05:44:20.147Z,98715.00
2019-03-20T05:46:51.223Z,98716.00
2019-03-20T05:49:22.730Z,98726.00
2019-03-20T05:51:54.352Z,98717.00
2019-03-20T05:54:25.587Z,98717.00
2019-03-20T05:56:56.714Z,98726.00
2019-03-20T05:59:28.214Z,98716.00
2019-03-20T06:01:59.649Z,98714.00
2019-03-20T06:04:30.790Z,98723.00
2019-03-20T06:07:02.685Z,98711.00
2019-03-20T06:09:33.896Z,98723.00
2019-03-20T06:12:05.206Z,98732.00
2019-03-20T06:14:36.555Z,98729.00
2019-03-20T06:17:08.785Z,98735.00
2019-03-20T06:19:40.270Z,98734.00
2019-03-20T06:22:11.453Z,98736.00
2019-03-20T06:24:42.649Z,98741.00
2019-03-20T06:27:13.854Z,98750.00
2019-03-20T06:29:45.288Z,98759.00
2019-03-20T06:32:16.700Z,98760.00
2019-03-20T06:34:48.964Z,98767.00
2019-03-20T06:37:20.095Z,98761.00
2019-03-20T06:39:53.407Z,98774.00
2019-03-20T06:42:24.462Z,98781.00
2019-03-20T06:44:55.741Z,98781.00
2019-03-20T06:47:27.138Z,98779.00
2019-03-20T06:49:58.480Z,98765.00
2019-03-20T06:52:29.666Z,98777.00
2019-03-20T06:55:01.256Z,98771.00
2019-03-20T06:57:33.112Z,98775.00
2019-03-20T07:00:53.300Z,98779.00
2019-03-20T07:04:11.777Z,98783.00
2019-03-20T07:07:15.266Z,98788.00
2019-03-20T07:10:48.065Z,98796.00
2019-03-20T07:13:19.266Z,98784.00
2019-03-20T07:15:50.729Z,98786.00
2019-03-20T07:18:22.226Z,98792.00
2019-03-20T07:20:53.389Z,98800.00
2019-03-20T07:23:24.533Z,98787.00
2019-03-20T07:25:55.643Z,98801.00
2019-03-20T07:28:26.918Z,98810.00
2019-03-20T07:30:58.139Z,98800.00
2019-03-20T07:33:29.221Z,98802.00
2019-03-20T07:36:00.858Z,98801.00
2019-03-20T07:38:32.382Z,98816.00
2019-03-20T07:41:03.673Z,98813.00
2019-03-20T07:43:34.701Z,98819.00
2019-03-20T07:46:06.631Z,98815.00
2019-03-20T07:48:40.607Z,98811.00
2019-03-20T07:51:11.192Z,98810.00
2019-03-20T07:53:42.306Z,98808.00
2019-03-20T07:56:13.849Z,98809.00
2019-03-20T07:58:45.013Z,98816.00
2019-03-20T08:01:16.861Z,98812.00
2019-03-20T08:03:48.209Z,98812.00
2019-03-20T08:06:19.717Z,98812.00
2019-03-20T08:08:51.966Z,98818.00
2019-03-20T08:11:23.246Z,98819.00
2019-03-20T08:13:54.460Z,98818.00
2019-03-20T08:16:25.745Z,98826.00
2019-03-20T08:18:56.926Z,98824.00
2019-03-20T08:21:28.229Z,98813.00
2019-03-20T08:23:59.931Z,98830.00
2019-03-20T08:26:31.131Z,98836.00
2019-03-20T08:29:02.209Z,98822.00
2019-03-20T08:31:33.865Z,98829.00
2019-03-20T08:34:05.028Z,98838.00
2019-03-20T08:36:36.652Z,98841.00
2019-03-20T08:39:08.857Z,98852.00
2019-03-20T08:41:40.785Z,98841.00
2019-03-20T08:44:11.876Z,98842.00
2019-03-20T08:46:43.092Z,98841.00
2019-03-20T08:49:14.621Z,98843.00
2019-03-20T08:51:45.883Z,98850.00
2019-03-20T08:54:17.151Z,98856.00
2019-03-20T08:56:48.447Z,98856.00
2019-03-20T08:59:19.677Z,98856.00
2019-03-20T09:01:50.799Z,98861.00
2019-03-20T09:04:22.167Z,98859.00
2019-03-20T09:06:53.345Z,98858.00
2019-03-20T09:09:24.895Z,98860.00
2019-03-20T09:11:56.650Z,98853.00
2019-03-20T09:14:27.900Z,98864.00
2019-03-20T09:17:00.371Z,98856.00
2019-03-20T09:19:31.749Z,98864.00
2019-03-20T09:22:02.887Z,98865.00
2019-03-20T09:24:34.059Z,98874.00
2019-03-20T09:27:05.665Z,98878.00
2019-03-20T09:29:36.774Z,98882.00
2019-03-20T09:32:08.454Z,98874.00
2019-03-20T09:34:40.095Z,98885.00
2019-03-20T09:37:11.759Z,98873.00
2019-03-20T09:39:44.012Z,98871.00
2019-03-20T09:42:15.139Z,98878.00
2019-03-20T09:44:47.117Z,98877.00
2019-03-20T09:47:18.243Z,98879.00
2019-03-20T09:49:49.779Z,98879.00
2019-03-20T09:52:21.063Z,98887.00
2019-03-20T09:54:52.641Z,98881.00
2019-03-20T09:57:23.858Z,98887.00
2019-03-20T09:59:55.043Z,98882.00
2019-03-20T10:02:26.309Z,98881.00
2019-03-20T10:04:57.763Z,98890.00
2019-03-20T10:07:29.025Z,98887.00
2019-03-20T10:10:00.315Z,98892.00
2019-03-20T10:12:31.788Z,98900.00
2019-03-20T10:15:03.057Z,98893.00
2019-03-20T10:17:34.154Z,98901.00
2019-03-20T10:20:06.503Z,98893.00
2019-03-20T10:22:39.027Z,98896.00
2019-03-20T10:25:11.043Z,98891.00
2019-03-20T10:27:42.348Z,98899.00
2019-03-20T10:30:17.746Z,98895.00
2019-03-20T10:32:48.941Z,98900.00
2019-03-20T10:35:20.212Z,98886.00
2019-03-20T10:37:51.500Z,98888.00
2019-03-20T10:40:22.788Z,98891.00
2019-03-20T10:42:54.361Z,98895.00
2019-03-20T10:45:25.886Z,98865.00
2019-03-20T10:47:57.629Z,98885.00
2019-03-20T10:50:29.040Z,98882.00
2019-03-20T10:53:00.591Z,98885.00
2019-03-20T10:55:31.799Z,98885.00
2019-03-20T10:58:02.990Z,98884.00
2019-03-20T11:00:34.264Z,98876.00
2019-03-20T11:03:05.761Z,98884.00
2019-03-20T11:05:36.995Z,98880.00
2019-03-20T11:08:08.526Z,98879.00
2019-03-20T11:10:39.744Z,98884.00
2019-03-20T11:13:10.978Z,98886.00
2019-03-20T11:15:42.488Z,98886.00
2019-03-20T11:18:13.576Z,98894.00
2019-03-20T11:20:44.775Z,98883.00
2019-03-20T11:23:15.957Z,98888.00
2019-03-20T11:25:47.618Z,98882.00
2019-03-20T11:28:18.818Z,98883.00
2019-03-20T11:30:50.437Z,98888.00
2019-03-20T11:33:22.084Z,98880.00
2019-03-20T11:35:53.679Z,98890.00
2019-03-20T11:38:25.226Z,98890.00
2019-03-20T11:40:56.303Z,98880.00
2019-03-20T11:43:27.869Z,98885.00
2019-03-20T11:45:59.512Z,98875.00
2019-03-20T11:48:33.247Z,98871.00
2019-03-20T11:51:03.563Z,98877.00
2019-03-20T11:53:34.804Z,98881.00
2019-03-20T11:56:06.306Z,98869.00
2019-03-20T11:58:37.557Z,98877.00
2019-03-20T12:01:08.777Z,98873.00
2019-03-20T12:03:39.895Z,98877.00
2019-03-20T12:06:11.115Z,98864.00
2019-03-20T12:08:42.369Z,98873.00
2019-03-20T12:11:15.859Z,98858.00
2019-03-20T12:13:47.306Z,98865.00
2019-03-20T12:16:18.607Z,98853.00
2019-03-20T12:18:49.911Z,98853.00
2019-03-20T12:21:21.210Z,98860.00
2019-03-20T12:23:52.256Z,98853.00
2019-03-20T12:26:23.626Z,98863.00
2019-03-20T12:28:54.823Z,98854.00
2019-03-20T12:31:26.001Z,98866.00
2019-03-20T12:33:57.162Z,98860.00
2019-03-20T12:36:29.489Z,98864.00
2019-03-20T12:39:00.824Z,98866.00
2019-03-20T12:41:33.750Z,98866.00
2019-03-20T12:44:05.659Z,98866.00
2019-03-20T12:46:41.703Z,98874.00
2019-03-20T12:49:09.835Z,98865.00
2019-03-20T12:51:41.416Z,98861.00
2019-03-20T12:54:12.596Z,98859.00
2019-03-20T12:56:44.145Z,98851.00
2019-03-20T12:59:15.498Z,98847.00
2019-03-20T13:01:46.718Z,98844.00
2019-03-20T13:04:17.795Z,98834.00
2019-03-20T13:06:48.937Z,98834.00
2019-03-20T13:09:20.119Z,98827.00
2019-03-20T13:11:51.331Z,98825.00
2019-03-20T13:14:22.422Z,98827.00
2019-03-20T13:16:53.625Z,98817.00
2019-03-20T13:19:24.787Z,98813.00
2019-03-20T13:21:56.483Z,98823.00
2019-03-20T13:24:28.311Z,98816.00
2019-03-20T13:26:59.557Z,98817.00
2019-03-20T13:29:30.898Z,98824.00
2019-03-20T13:32:03.773Z,98823.00
2019-03-20T13:34:34.937Z,98822.00
2019-03-20T13:37:06.319Z,98815.00
2019-03-20T13:39:37.445Z,98825.00
2019-03-20T13:42:09.019Z,98830.00
2019-03-20T13:44:40.200Z,98825.00
2019-03-20T13:47:11.262Z,98821.00
2019-03-20T13:49:42.481Z,98830.00
2019-03-20T13:52:13.783Z,98826.00
2019-03-20T13:54:45.344Z,98821.00
2019-03-20T13:57:16.385Z,98827.00
2019-03-20T13:59:47.618Z,98830.00
2019-03-20T14:02:18.825Z,98835.00
2019-03-20T14:04:50.643Z,98833.00
2019-03-20T14:07:22.099Z,98839.00
2019-03-20T14:09:53.238Z,98832.00
2019-03-20T14:12:24.748Z,98845.00
2019-03-20T14:14:56.636Z,98836.00
2019-03-20T14:17:27.941Z,98826.00
2019-03-20T14:20:00.322Z,98835.00
2019-03-20T14:22:32.360Z,98830.00
2019-03-20T14:25:03.666Z,98826.00
2019-03-20T14:27:34.879Z,98818.00
2019-03-20T14:30:11.096Z,98829.00
2019-03-20T14:32:42.337Z,98828.00
2019-03-20T14:35:14.608Z,98822.00
2019-03-20T14:37:45.918Z,98833.00
2019-03-20T14:40:19.862Z,98828.00
2019-03-20T14:42:51.029Z,98823.00
2019-03-20T14:45:22.322Z,98824.00
2019-03-20T14:47:53.971Z,98824.00
2019-03-20T14:50:26.344Z,98839.00
2019-03-20T14:52:57.565Z,98831.00
2019-03-20T14:55:29.161Z,98836.00
2019-03-20T14:58:01.737Z,98845.00
2019-03-20T15:00:34.092Z,98825.00
2019-03-20T15:03:05.479Z,98828.00
2019-03-20T15:05:36.548Z,98828.00
2019-03-20T15:08:08.056Z,98830.00
2019-03-20T15:10:45.845Z,98832.00
2019-03-20T15:13:13.049Z,98830.00
2019-03-20T15:15:56.011Z,98833.00
2019-03-20T15:18:27.494Z,98828.00
2019-03-20T15:20:58.650Z,98831.00
2019-03-20T15:23:30.249Z,98833.00
2019-03-20T15:26:01.551Z,98826.00
2019-03-20T15:28:32.728Z,98825.00
2019-03-20T15:31:03.964Z,98830.00
2019-03-20T15:33:35.224Z,98821.00
2019-03-20T15:36:06.530Z,98816.00
2019-03-20T15:38:37.561Z,98814.00
2019-03-20T15:41:08.823Z,98813.00
2019-03-20T15:43:39.859Z,98816.00
2019-03-20T15:46:11.165Z,98802.00
2019-03-20T15:48:42.435Z,98799.00
2019-03-20T15:51:13.716Z,98818.00
2019-03-20T15:53:44.944Z,98822.00
2019-03-20T15:56:16.219Z,98818.00
2019-03-20T15:58:47.623Z,98805.00
2019-03-20T16:01:18.896Z,98810.00
2019-03-20T16:03:50.496Z,98816.00
2019-03-20T16:06:22.151Z,98820.00
2019-03-20T16:08:55.881Z,98818.00
2019-03-20T16:11:26.249Z,98813.00
2019-03-20T16:13:57.760Z,98817.00
2019-03-20T16:16:28.858Z,98827.00
2019-03-20T16:19:00.227Z,98829.00
2019-03-20T16:21:31.901Z,98824.00
2019-03-20T16:24:03.146Z,98826.00
2019-03-20T16:26:34.343Z,98829.00
2019-03-20T16:29:05.607Z,98828.00
2019-03-20T16:31:37.277Z,98828.00
2019-03-20T16:34:08.380Z,98832.00
2019-03-20T16:36:39.569Z,98829.00
2019-03-20T16:39:10.895Z,98820.00
2019-03-20T16:41:42.358Z,98826.00
2019-03-20T16:44:13.539Z,98824.00
2019-03-20T16:46:45.629Z,98821.00
2019-03-20T16:49:16.881Z,98814.00
2019-03-20T16:51:48.078Z,98823.00
2019-03-20T16:54:19.281Z,98831.00
2019-03-20T16:56:50.584Z,98845.00
2019-03-20T16:59:22.004Z,98826.00
2019-03-20T17:01:53.461Z,98836.00
2019-03-20T17:04:25.017Z,98832.00
2019-03-20T17:06:56.238Z,98833.00
2019-03-20T17:09:27.406Z,98841.00
2019-03-20T17:11:58.629Z,98859.00
2019-03-20T17:14:29.908Z,98851.00
2019-03-20T17:17:01.192Z,98859.00
2019-03-20T17:19:32.669Z,98848.00
2019-03-20T17:22:03.900Z,98844.00
2019-03-20T17:24:35.365Z,98848.00
2019-03-20T17:27:06.917Z,98855.00
2019-03-20T17:29:38.106Z,98864.00
2019-03-20T17:32:09.389Z,98865.00
2019-03-20T17:34:40.762Z,98867.00
2019-03-20T17:37:11.995Z,98865.00
2019-03-20T17:39:45.936Z,98864.00
2019-03-20T17:42:17.235Z,98867.00
2019-03-20T17:44:48.402Z,98863.00
2019-03-20T17:47:19.870Z,98872.00
2019-03-20T17:49:51.061Z,98859.00
2019-03-20T17:52:22.353Z,98861.00
2019-03-20T17:54:53.935Z,98863.00
2019-03-20T17:57:25.138Z,98862.00
2019-03-20T17:59:56.366Z,98857.00
2019-03-20T18:02:27.594Z,98854.00
2019-03-20T18:04:58.705Z,98856.00
2019-03-20T18:07:30.421Z,98867.00
2019-03-20T18:10:02.014Z,98847.00
2019-03-20T18:12:34.537Z,98858.00
2019-03-20T18:15:08.450Z,98844.00
2019-03-20T18:17:39.739Z,98864.00
2019-03-20T18:20:12.544Z,98863.00
2019-03-20T18:22:44.647Z,98862.00
2019-03-20T18:25:15.810Z,98853.00
2019-03-20T18:27:47.411Z,98861.00
2019-03-20T18:30:21.111Z,98865.00
2019-03-20T18:32:52.766Z,98862.00
2019-03-20T18:35:24.025Z,98868.00
2019-03-20T18:37:55.298Z,98861.00
2019-03-20T18:40:26.556Z,98877.00
2019-03-20T18:42:58.021Z,98890.00
2019-03-20T18:45:29.302Z,98890.00
2019-03-20T18:48:00.897Z,98902.00
2019-03-20T18:50:32.100Z,98899.00
2019-03-20T18:53:03.698Z,98900.00
2019-03-20T18:55:34.803Z,98901.00
2019-03-20T18:58:06.243Z,98899.00
2019-03-20T19:00:37.522Z,98908.00
2019-03-20T19:03:09.561Z,98903.00
2019-03-20T19:05:54.611Z,98915.00
2019-03-20T19:08:25.943Z,98911.00
2019-03-20T19:10:57.156Z,98917.00
2019-03-20T19:13:28.521Z,98921.00
2019-03-20T19:15:59.654Z,98917.00
2019-03-20T19:18:30.900Z,98921.00
2019-03-20T19:21:02.103Z,98923.00
2019-03-20T19:23:33.198Z,98923.00
2019-03-20T19:26:04.605Z,98928.00
2019-03-20T19:28:36.189Z,98923.00
2019-03-20T19:31:07.458Z,98925.00
2019-03-20T19:33:39.108Z,98927.00
2019-03-20T19:36:10.333Z,98927.00
2019-03-20T19:38:41.836Z,98922.00
2019-03-20T19:41:12.989Z,98934.00
2019-03-20T19:43:44.078Z,98933.00
2019-03-20T19:46:15.367Z,98935.00
2019-03-20T19:48:46.473Z,98933.00
2019-03-20T19:51:17.604Z,98931.00
2019-03-20T19:53:48.758Z,98938.00
2019-03-20T19:56:19.896Z,98941.00
2019-03-20T19:58:51.306Z,98934.00
2019-03-20T20:01:22.757Z,98942.00
2019-03-20T20:03:54.005Z,98944.00
2019-03-20T20:06:25.522Z,98932.00
2019-03-20T20:08:56.570Z,98941.00
2019-03-20T20:11:27.800Z,98940.00
2019-03-20T20:14:00.936Z,98935.00
2019-03-20T20:16:34.136Z,98936.00
2019-03-20T20:19:05.684Z,98941.00
2019-03-20T20:21:37.129Z,98945.00
2019-03-20T20:24:08.306Z,98953.00
2019-03-20T20:26:39.493Z,98954.00
2019-03-20T20:29:10.800Z,98943.00
2019-03-20T20:31:42.064Z,98950.00
2019-03-20T20:34:13.174Z,98948.00
2019-03-20T20:36:44.447Z,98941.00
2019-03-20T20:39:15.774Z,98947.00
2019-03-20T20:41:46.917Z,98948.00
2019-03-20T20:44:18.006Z,98946.00
2019-03-20T20:46:49.060Z,98947.00
2019-03-20T20:49:20.151Z,98939.00
2019-03-20T20:51:51.573Z,98945.00
2019-03-20T20:54:22.821Z,98940.00
2019-03-20T20:56:54.102Z,98954.00
2019-03-20T20:59:25.251Z,98945.00
2019-03-20T21:01:56.464Z,98951.00
2019-03-20T21:04:27.668Z,98946.00
2019-03-20T21:06:58.712Z,98950.00
2019-03-20T21:09:29.870Z,98940.00
2019-03-20T21:12:01.064Z,98959.00
2019-03-20T21:14:32.204Z,98962.00
2019-03-20T21:17:05.049Z,98959.00
2019-03-20T21:19:38.816Z,98960.00
2019-03-20T21:23:04.911Z,98959.00
2019-03-20T21:25:36.839Z,98962.00
2019-03-20T21:29:00.946Z,98967.00
2019-03-20T21:32:03.618Z,98956.00
2019-03-20T21:35:52.713Z,98954.00
2019-03-20T21:38:21.745Z,98961.00
2019-03-20T21:41:39.678Z,98960.00
2019-03-20T21:45:04.034Z,98969.00
2019-03-20T21:47:34.189Z,98966.00
2019-03-20T21:51:03.287Z,98977.00
2019-03-20T21:54:37.503Z,98971.00
2019-03-20T21:58:06.391Z,98968.00
2019-03-20T22:01:59.279Z,98970.00
2019-03-20T22:05:22.841Z,98962.00
2019-03-20T22:08:13.539Z,98967.00
2019-03-20T22:12:21.449Z,98957.00
2019-03-20T22:15:33.983Z,98968.00
2019-03-20T22:19:24.442Z,98971.00
2019-03-20T22:23:26.884Z,98968.00
2019-03-20T22:27:18.022Z,98967.00
2019-03-20T22:30:27.634Z,98968.00
2019-03-20T22:34:16.912Z,98977.00
2019-03-20T22:37:16.454Z,98977.00
2019-03-20T22:40:40.535Z,98971.00
2019-03-20T22:44:17.931Z,98966.00
2019-03-20T22:48:09.129Z,98964.00
2019-03-20T22:51:13.649Z,98959.00
2019-03-20T22:54:42.595Z,98959.00
2019-03-20T22:57:40.423Z,98955.00
2019-03-20T23:00:40.752Z,98956.00
2019-03-20T23:03:49.392Z,98953.00
2019-03-20T23:06:33.130Z,98967.00
2019-03-20T23:09:16.533Z,98953.00
2019-03-20T23:12:13.683Z,98967.00
2019-03-20T23:14:58.465Z,98964.00
2019-03-20T23:17:45.762Z,98971.00
2019-03-20T23:20:35.693Z,98971.00
2019-03-20T23:23:18.166Z,98975.00
2019-03-20T23:25:59.429Z,98985.00
2019-03-20T23:28:46.254Z,98974.00
2019-03-20T23:31:33.398Z,98983.00
2019-03-20T23:34:18.346Z,98978.00
2019-03-20T23:37:21.048Z,98987.00
2019-03-20T23:40:16.378Z,99008.00
2019-03-20T23:42:58.970Z,98989.00
2019-03-20T23:45:42.583Z,98992.00
2019-03-20T23:49:06.668Z,98991.00
2019-03-20T23:51:49.307Z,98990.00
2019-03-20T23:54:46.842Z,98990.00
